Time;durP1;ratioP1;P1;durP2;ratioP2;P2;SDS_P1;SDS_P2;PMS_P1;PMS_P2;Temp;Humidity;BMP_temperature;BMP_pressure;BME280_temperature;BME280_humidity;BME280_pressure;Samples;Min_cycle;Max_cycle;Signal;HPM_P1;HPM_P2
2022/06/21 00:00:07;;;;;;;17.73;15.52;;;;;;;;;;4992606;28;20465;-71
2022/06/21 00:02:33;;;;;;;17.05;14.82;;;;;;;;;;4989802;28;20060;-73
2022/06/21 00:04:58;;;;;;;18.15;16.40;;;;;;;;;;4991157;28;20108;-72
2022/06/21 00:07:26;;;;;;;18.13;16.23;;;;;;;;;;4995976;28;20077;-72
2022/06/21 00:09:52;;;;;;;17.58;15.75;;;;;;;;;;5006049;28;20081;-69
2022/06/21 00:12:17;;;;;;;19.38;17.30;;;;;;;;;;5001395;28;20082;-72
2022/06/21 00:14:42;;;;;;;18.63;16.73;;;;;;;;;;4991586;28;20035;-70
2022/06/21 00:17:12;;;;;;;18.90;16.65;;;;;;;;;;4996492;28;20041;-70
2022/06/21 00:19:38;;;;;;;18.17;16.10;;;;;;;;;;4995568;28;20088;-70
2022/06/21 00:22:04;;;;;;;19.40;17.33;;;;;;;;;;4994692;28;20022;-72
2022/06/21 00:24:30;;;;;;;16.48;14.73;;;;;;;;;;4990382;28;20027;-74
2022/06/21 00:26:55;;;;;;;16.50;14.77;;;;;;;;;;4997301;28;20118;-71
2022/06/21 00:29:20;;;;;;;19.30;16.17;;;;;;;;;;4998560;28;20030;-70
2022/06/21 00:31:47;;;;;;;19.55;16.25;;;;;;;;;;4996461;28;20061;-74
2022/06/21 00:34:14;;;;;;;17.35;15.55;;;;;;;;;;4993669;28;20092;-70
2022/06/21 00:36:40;;;;;;;17.48;14.65;;;;;;;;;;4993869;28;20045;-71
2022/06/21 00:39:06;;;;;;;19.58;17.15;;;;;;;;;;4994105;28;20034;-74
2022/06/21 00:41:39;;;;;;;17.67;15.93;;;;;;;;;;4991624;28;20080;-72
2022/06/21 00:44:06;;;;;;;16.27;14.68;;;;;;;;;;4994824;28;20419;-73
2022/06/21 00:46:37;;;;;;;18.60;16.50;;;;;;;;;;5000591;28;20022;-74
2022/06/21 00:49:03;;;;;;;18.98;16.20;;;;;;;;;;4993001;28;20498;-72
2022/06/21 00:51:36;;;;;;;18.90;16.92;;;;;;;;;;5000079;28;20034;-72
2022/06/21 00:54:14;;;;;;;19.40;15.80;;;;;;;;;;4996618;28;20022;-72
2022/06/21 00:56:42;;;;;;;18.80;16.92;;;;;;;;;;4997260;28;20045;-71
2022/06/21 00:59:19;;;;;;;21.27;17.15;;;;;;;;;;4992033;28;20030;-72
2022/06/21 01:01:45;;;;;;;18.75;15.48;;;;;;;;;;5028259;23;20725;-82
2022/06/21 01:04:13;;;;;;;17.83;15.73;;;;;;;;;;5024724;28;20040;-85
2022/06/21 01:06:41;;;;;;;18.27;16.45;;;;;;;;;;5354223;22;20016;-60
2022/06/21 01:09:14;;;;;;;18.35;16.40;;;;;;;;;;4984297;28;20046;-59
2022/06/21 01:11:52;;;;;;;17.27;15.43;;;;;;;;;;4986417;28;20018;-59
2022/06/21 01:14:20;;;;;;;18.73;16.83;;;;;;;;;;4988347;28;20038;-59
2022/06/21 01:16:45;;;;;;;19.85;15.55;;;;;;;;;;4989127;28;20023;-60
2022/06/21 01:19:14;;;;;;;17.45;15.60;;;;;;;;;;4988850;28;20026;-58
2022/06/21 01:21:42;;;;;;;18.60;16.67;;;;;;;;;;4988318;28;20606;-59
2022/06/21 01:24:10;;;;;;;22.25;14.85;;;;;;;;;;4986719;28;20038;-59
2022/06/21 01:26:38;;;;;;;16.95;15.35;;;;;;;;;;4988770;28;20080;-60
2022/06/21 01:29:05;;;;;;;19.10;14.48;;;;;;;;;;4987863;28;20124;-60
2022/06/21 01:31:32;;;;;;;16.85;15.15;;;;;;;;;;4991257;28;20081;-60
2022/06/21 01:33:57;;;;;;;17.90;15.73;;;;;;;;;;4989444;28;20034;-60
2022/06/21 01:36:31;;;;;;;17.63;15.90;;;;;;;;;;4987029;28;20029;-60
2022/06/21 01:39:03;;;;;;;15.60;13.90;;;;;;;;;;4991086;28;20353;-60
2022/06/21 01:41:34;;;;;;;15.73;14.15;;;;;;;;;;4991433;28;20030;-60
2022/06/21 01:44:03;;;;;;;14.13;12.48;;;;;;;;;;4989470;28;20026;-60
2022/06/21 01:46:30;;;;;;;14.45;11.80;;;;;;;;;;4990552;28;20034;-60
2022/06/21 01:49:00;;;;;;;12.45;10.70;;;;;;;;;;4988274;28;20026;-60
2022/06/21 01:51:29;;;;;;;11.05;10.02;;;;;;;;;;4988651;28;20578;-60
2022/06/21 01:53:55;;;;;;;12.15;10.90;;;;;;;;;;4986574;28;20543;-60
2022/06/21 01:56:23;;;;;;;11.10;9.88;;;;;;;;;;4988007;28;20388;-61
2022/06/21 01:58:51;;;;;;;12.40;11.27;;;;;;;;;;4986923;28;20034;-60
2022/06/21 02:01:26;;;;;;;15.77;12.13;;;;;;;;;;4991783;28;20037;-60
2022/06/21 02:03:53;;;;;;;12.02;10.77;;;;;;;;;;4989050;28;20416;-60
2022/06/21 02:06:20;;;;;;;12.15;10.88;;;;;;;;;;4988565;28;20148;-60
2022/06/21 02:08:52;;;;;;;13.23;11.52;;;;;;;;;;4987910;28;20088;-60
2022/06/21 02:11:32;;;;;;;12.65;11.55;;;;;;;;;;4988220;28;20077;-60
2022/06/21 02:16:45;;;;;;;11.90;10.60;;;;;;;;;;4990127;28;20037;-60
2022/06/21 02:19:15;;;;;;;13.32;11.15;;;;;;;;;;4990006;28;20460;-60
2022/06/21 02:21:41;;;;;;;11.25;9.95;;;;;;;;;;4990049;28;20026;-60
2022/06/21 02:24:08;;;;;;;10.82;9.75;;;;;;;;;;4985818;28;20467;-60
2022/06/21 02:26:33;;;;;;;9.82;9.00;;;;;;;;;;4987832;28;20026;-60
2022/06/21 02:28:59;;;;;;;10.43;8.85;;;;;;;;;;4987197;28;20042;-61
2022/06/21 02:31:26;;;;;;;9.55;8.75;;;;;;;;;;4986846;28;20338;-60
2022/06/21 02:33:53;;;;;;;9.68;8.95;;;;;;;;;;4988177;28;20478;-60
2022/06/21 02:36:20;;;;;;;10.38;9.35;;;;;;;;;;4987653;28;20105;-60
2022/06/21 02:38:47;;;;;;;10.43;9.48;;;;;;;;;;4988381;28;20467;-60
2022/06/21 02:41:24;;;;;;;10.05;9.15;;;;;;;;;;4988032;28;20041;-60
2022/06/21 02:43:55;;;;;;;8.85;8.07;;;;;;;;;;4987224;28;20084;-61
2022/06/21 02:46:26;;;;;;;7.65;7.00;;;;;;;;;;4988061;28;20029;-60
2022/06/21 02:48:51;;;;;;;8.48;7.47;;;;;;;;;;4988111;28;20115;-60
2022/06/21 02:51:19;;;;;;;7.35;6.75;;;;;;;;;;4987199;28;20033;-60
2022/06/21 02:54:07;;;;;;;7.45;6.13;;;;;;;;;;4988374;28;20026;-60
2022/06/21 02:56:50;;;;;;;6.85;6.25;;;;;;;;;;4985659;28;20419;-61
2022/06/21 02:59:16;;;;;;;6.25;5.75;;;;;;;;;;4987598;28;20125;-60
2022/06/21 03:01:50;;;;;;;6.68;6.03;;;;;;;;;;4988000;28;20030;-60
2022/06/21 03:04:18;;;;;;;6.07;5.67;;;;;;;;;;4988156;28;20042;-59
2022/06/21 03:06:43;;;;;;;6.40;5.80;;;;;;;;;;4986942;28;20281;-60
2022/06/21 03:09:11;;;;;;;8.38;6.32;;;;;;;;;;4988164;28;20037;-60
2022/06/21 03:11:39;;;;;;;6.32;5.72;;;;;;;;;;4987917;28;20084;-60
2022/06/21 03:14:06;;;;;;;6.07;5.57;;;;;;;;;;4985357;28;20034;-60
2022/06/21 03:16:31;;;;;;;6.32;5.82;;;;;;;;;;4987593;28;20619;-60
2022/06/21 03:18:58;;;;;;;5.80;5.32;;;;;;;;;;4989201;28;20507;-60
2022/06/21 03:21:29;;;;;;;5.68;5.20;;;;;;;;;;4987645;28;20432;-60
2022/06/21 03:23:56;;;;;;;6.28;5.88;;;;;;;;;;4988050;28;20026;-60
2022/06/21 03:26:21;;;;;;;5.88;5.38;;;;;;;;;;4987516;28;20030;-60
2022/06/21 03:28:47;;;;;;;4.82;4.30;;;;;;;;;;4987006;28;20617;-60
2022/06/21 03:31:12;;;;;;;4.13;3.88;;;;;;;;;;4986880;28;20027;-60
2022/06/21 03:33:38;;;;;;;4.05;3.80;;;;;;;;;;4986859;28;20030;-60
2022/06/21 03:36:06;;;;;;;3.63;3.42;;;;;;;;;;4988707;28;20112;-60
2022/06/21 03:38:32;;;;;;;4.47;3.53;;;;;;;;;;4985299;28;20037;-60
2022/06/21 03:43:41;;;;;;;3.42;3.22;;;;;;;;;;4989397;28;20543;-59
2022/06/21 03:46:09;;;;;;;3.30;3.00;;;;;;;;;;4986304;28;20030;-60
2022/06/21 03:48:38;;;;;;;3.25;3.03;;;;;;;;;;4987836;28;20045;-62
2022/06/21 03:51:12;;;;;;;3.65;2.67;;;;;;;;;;4991528;28;20054;-62
2022/06/21 03:53:43;;;;;;;4.68;2.30;;;;;;;;;;4991140;28;20125;-62
2022/06/21 03:56:29;;;;;;;2.92;2.72;;;;;;;;;;4990531;28;20038;-62
2022/06/21 03:59:13;;;;;;;2.97;2.28;;;;;;;;;;4987970;28;20026;-62
2022/06/21 04:01:39;;;;;;;2.80;2.70;;;;;;;;;;4989961;28;20026;-61
2022/06/21 04:04:04;;;;;;;2.83;2.35;;;;;;;;;;4985155;28;20491;-60
2022/06/21 04:06:33;;;;;;;2.50;2.40;;;;;;;;;;4987276;28;20137;-60
2022/06/21 04:09:03;;;;;;;3.08;2.85;;;;;;;;;;4989741;28;20500;-60
2022/06/21 04:11:49;;;;;;;2.88;2.50;;;;;;;;;;4991049;28;20464;-60
2022/06/21 04:14:14;;;;;;;;;;;;;;;;;;4947248;28;20042;-60
2022/06/21 04:16:46;;;;;;;2.75;2.35;;;;;;;;;;4989253;28;19963;-61
2022/06/21 04:19:16;;;;;;;3.10;2.30;;;;;;;;;;4987220;28;20026;-60
2022/06/21 04:21:48;;;;;;;5.80;2.50;;;;;;;;;;4988918;28;20061;-60
2022/06/21 04:24:13;;;;;;;3.95;2.13;;;;;;;;;;4989926;28;20041;-60
2022/06/21 04:26:49;;;;;;;2.25;1.98;;;;;;;;;;4991509;28;20468;-61
2022/06/21 04:29:17;;;;;;;2.00;1.90;;;;;;;;;;4988714;28;20037;-61
2022/06/21 04:31:52;;;;;;;2.65;2.13;;;;;;;;;;4988218;28;20030;-61
2022/06/21 04:34:26;;;;;;;2.38;2.17;;;;;;;;;;4986234;28;20172;-60
2022/06/21 04:36:58;;;;;;;3.47;2.17;;;;;;;;;;4987601;28;20049;-60
2022/06/21 04:39:26;;;;;;;3.72;2.63;;;;;;;;;;4987396;28;20492;-60
2022/06/21 04:41:51;;;;;;;2.78;2.22;;;;;;;;;;4988521;28;20129;-60
2022/06/21 04:44:28;;;;;;;3.13;1.90;;;;;;;;;;4989896;28;20030;-60
2022/06/21 04:47:11;;;;;;;2.42;2.10;;;;;;;;;;4990931;28;20026;-61
2022/06/21 04:49:45;;;;;;;2.60;2.38;;;;;;;;;;4987031;28;20069;-60
2022/06/21 04:52:14;;;;;;;2.00;1.90;;;;;;;;;;4987558;28;20026;-60
2022/06/21 04:54:39;;;;;;;2.05;1.88;;;;;;;;;;4987651;28;20026;-61
2022/06/21 04:57:12;;;;;;;3.35;2.13;;;;;;;;;;4986052;28;20081;-60
2022/06/21 04:59:40;;;;;;;2.53;1.65;;;;;;;;;;4991816;28;20034;-61
2022/06/21 05:02:10;;;;;;;2.65;2.45;;;;;;;;;;4991960;28;20022;-61
2022/06/21 05:04:38;;;;;;;2.78;1.95;;;;;;;;;;4987806;28;20142;-60
2022/06/21 05:07:10;;;;;;;3.20;1.92;;;;;;;;;;4986883;28;20054;-60
2022/06/21 05:09:35;;;;;;;4.95;4.00;;;;;;;;;;4988811;28;20338;-60
2022/06/21 05:12:04;;;;;;;7.55;4.07;;;;;;;;;;4986581;28;20387;-60
2022/06/21 05:14:32;;;;;;;3.67;2.20;;;;;;;;;;4989481;28;20022;-60
2022/06/21 05:16:57;;;;;;;4.00;2.45;;;;;;;;;;4970846;28;20110;-61
2022/06/21 05:19:29;;;;;;;2.50;2.17;;;;;;;;;;4987080;28;20045;-62
2022/06/21 05:21:54;;;;;;;2.53;2.13;;;;;;;;;;4987684;28;20029;-62
2022/06/21 05:24:20;;;;;;;2.13;1.92;;;;;;;;;;4987459;28;20026;-62
2022/06/21 05:26:55;;;;;;;2.78;2.10;;;;;;;;;;4988341;28;20451;-62
2022/06/21 05:29:23;;;;;;;3.25;1.80;;;;;;;;;;4986338;28;20498;-65
2022/06/21 05:31:51;;;;;;;3.20;2.40;;;;;;;;;;4988019;28;20030;-63
2022/06/21 05:34:20;;;;;;;4.65;2.08;;;;;;;;;;4985221;28;20039;-62
2022/06/21 05:36:55;;;;;;;2.72;2.42;;;;;;;;;;4988702;28;20034;-61
2022/06/21 05:39:22;;;;;;;2.45;1.95;;;;;;;;;;4987127;28;20022;-61
2022/06/21 05:41:50;;;;;;;1.88;1.77;;;;;;;;;;4970169;28;20125;-61
2022/06/21 05:44:21;;;;;;;3.65;1.80;;;;;;;;;;4990046;28;20045;-61
2022/06/21 05:46:49;;;;;;;2.38;2.03;;;;;;;;;;4990942;28;20085;-61
2022/06/21 05:49:25;;;;;;;4.05;2.72;;;;;;;;;;4988020;28;20073;-61
2022/06/21 05:51:52;;;;;;;2.85;2.00;;;;;;;;;;4986332;28;20034;-61
2022/06/21 05:54:20;;;;;;;2.00;1.40;;;;;;;;;;4987076;28;20030;-61
2022/06/21 05:56:46;;;;;;;2.80;2.30;;;;;;;;;;4991629;28;20018;-61
2022/06/21 05:59:13;;;;;;;1.92;1.83;;;;;;;;;;4983501;28;20101;-61
2022/06/21 06:01:42;;;;;;;2.97;1.40;;;;;;;;;;4987894;28;20526;-61
2022/06/21 06:04:11;;;;;;;2.47;1.55;;;;;;;;;;4989520;28;20093;-60
2022/06/21 06:06:39;;;;;;;3.40;2.03;;;;;;;;;;4986962;28;20115;-61
2022/06/21 06:09:13;;;;;;;1.85;1.75;;;;;;;;;;4965977;28;20074;-61
2022/06/21 06:11:57;;;;;;;2.00;1.90;;;;;;;;;;4968605;28;20225;-61
2022/06/21 06:14:26;;;;;;;2.40;1.75;;;;;;;;;;4968089;28;20145;-61
2022/06/21 06:16:52;;;;;;;4.10;2.03;;;;;;;;;;4966466;28;20050;-61
2022/06/21 06:19:17;;;;;;;1.90;1.80;;;;;;;;;;4966527;28;20057;-61
2022/06/21 06:21:48;;;;;;;3.05;1.70;;;;;;;;;;4967000;28;20478;-60
2022/06/21 06:24:27;;;;;;;2.95;1.98;;;;;;;;;;4965532;28;20035;-60
2022/06/21 06:26:55;;;;;;;4.93;2.00;;;;;;;;;;4965144;28;20122;-62
2022/06/21 06:29:25;;;;;;;2.28;1.95;;;;;;;;;;4968912;28;20043;-61
2022/06/21 06:32:03;;;;;;;2.40;2.20;;;;;;;;;;4967675;28;20031;-61
2022/06/21 06:34:30;;;;;;;2.25;2.08;;;;;;;;;;4967986;28;20591;-61
2022/06/21 06:37:04;;;;;;;2.05;1.75;;;;;;;;;;4968548;28;20041;-61
2022/06/21 06:39:31;;;;;;;2.22;2.10;;;;;;;;;;4968046;28;20035;-61
2022/06/21 06:42:13;;;;;;;2.90;1.90;;;;;;;;;;4965977;28;20026;-60
2022/06/21 06:44:42;;;;;;;2.97;2.00;;;;;;;;;;4969390;28;20026;-60
2022/06/21 06:47:14;;;;;;;3.70;2.63;;;;;;;;;;4966302;28;20117;-61
2022/06/21 06:49:40;;;;;;;2.47;2.25;;;;;;;;;;4959617;28;20379;-60
2022/06/21 06:52:10;;;;;;;2.80;2.40;;;;;;;;;;4963797;28;20478;-60
2022/06/21 06:54:43;;;;;;;2.28;2.08;;;;;;;;;;4967690;28;20030;-60
2022/06/21 06:57:14;;;;;;;2.30;2.10;;;;;;;;;;4965899;28;20080;-61
2022/06/21 06:59:40;;;;;;;2.40;2.10;;;;;;;;;;4965580;28;20034;-59
2022/06/21 07:02:18;;;;;;;2.80;2.60;;;;;;;;;;4967742;28;20490;-60
2022/06/21 07:04:45;;;;;;;2.83;2.53;;;;;;;;;;4966178;28;20066;-58
2022/06/21 07:07:16;;;;;;;3.53;2.40;;;;;;;;;;4969455;28;20069;-59
2022/06/21 07:09:44;;;;;;;4.10;2.25;;;;;;;;;;4988455;28;20022;-62
2022/06/21 07:12:39;;;;;;;2.30;2.10;;;;;;;;;;4988081;28;20026;-59
2022/06/21 07:15:04;;;;;;;4.43;2.67;;;;;;;;;;4949092;28;20100;-59
2022/06/21 07:17:33;;;;;;;2.20;2.10;;;;;;;;;;4984663;28;20392;-59
2022/06/21 07:19:58;;;;;;;2.75;2.55;;;;;;;;;;4986162;28;20484;-59
2022/06/21 07:22:26;;;;;;;3.35;1.98;;;;;;;;;;4989071;28;20062;-60
2022/06/21 07:25:00;;;;;;;2.45;2.17;;;;;;;;;;4984910;28;20030;-60
2022/06/21 07:27:26;;;;;;;1.65;1.55;;;;;;;;;;4984197;28;20030;-59
2022/06/21 07:29:57;;;;;;;2.78;2.33;;;;;;;;;;4987278;28;20140;-59
2022/06/21 07:32:29;;;;;;;1.70;1.50;;;;;;;;;;4987744;28;20463;-59
2022/06/21 07:35:00;;;;;;;2.38;2.20;;;;;;;;;;4987580;28;20140;-59
2022/06/21 07:37:26;;;;;;;2.33;2.20;;;;;;;;;;4986969;28;20042;-59
2022/06/21 07:39:51;;;;;;;2.97;2.40;;;;;;;;;;4987971;28;20141;-59
2022/06/21 07:42:27;;;;;;;4.60;2.35;;;;;;;;;;4985172;28;20567;-59
2022/06/21 07:44:58;;;;;;;3.08;1.75;;;;;;;;;;4986594;28;20527;-60
2022/06/21 07:47:27;;;;;;;2.58;2.08;;;;;;;;;;4987595;28;20018;-59
2022/06/21 07:49:54;;;;;;;2.10;1.92;;;;;;;;;;4986907;28;20030;-59
2022/06/21 07:52:32;;;;;;;2.88;2.45;;;;;;;;;;4985982;28;20054;-60
2022/06/21 07:54:58;;;;;;;3.28;2.13;;;;;;;;;;4989277;28;20027;-59
2022/06/21 07:57:30;;;;;;;2.10;1.90;;;;;;;;;;4987005;28;20026;-59
2022/06/21 08:00:01;;;;;;;4.78;2.38;;;;;;;;;;4985905;28;20563;-59
2022/06/21 08:07:59;;;;;;;4.13;2.10;;;;;;;;;;4991811;28;20069;-60
2022/06/21 08:10:44;;;;;;;4.88;1.98;;;;;;;;;;4985007;28;20052;-60
2022/06/21 08:13:10;;;;;;;2.47;1.80;;;;;;;;;;4981679;28;20128;-60
2022/06/21 08:15:37;;;;;;;3.25;2.10;;;;;;;;;;4986546;28;20026;-60
2022/06/21 08:18:07;;;;;;;4.50;2.28;;;;;;;;;;4986310;28;20038;-60
2022/06/21 08:20:38;;;;;;;5.45;2.03;;;;;;;;;;4984066;28;20317;-60
2022/06/21 08:23:06;;;;;;;5.32;2.35;;;;;;;;;;4983293;28;20465;-59
2022/06/21 08:25:31;;;;;;;2.35;2.25;;;;;;;;;;4987396;28;20052;-59
2022/06/21 08:28:09;;;;;;;2.58;2.33;;;;;;;;;;4972231;28;20038;-59
2022/06/21 08:30:34;;;;;;;3.83;2.58;;;;;;;;;;4990896;28;20058;-59
2022/06/21 08:33:05;;;;;;;4.13;2.88;;;;;;;;;;4994171;28;20429;-59
2022/06/21 08:35:39;;;;;;;3.13;2.80;;;;;;;;;;4993750;28;20076;-59
2022/06/21 08:38:08;;;;;;;3.28;2.63;;;;;;;;;;4989299;28;20450;-61
2022/06/21 08:40:39;;;;;;;3.28;2.97;;;;;;;;;;4987903;28;20915;-62
2022/06/21 08:43:19;;;;;;;3.45;2.42;;;;;;;;;;4988364;28;20042;-60
2022/06/21 08:45:45;;;;;;;2.42;2.22;;;;;;;;;;4989463;28;20378;-61
2022/06/21 08:48:13;;;;;;;3.15;2.40;;;;;;;;;;4989226;28;20121;-61
2022/06/21 08:50:57;;;;;;;2.90;2.67;;;;;;;;;;4987538;28;20022;-61
2022/06/21 08:53:25;;;;;;;2.60;2.38;;;;;;;;;;4991673;28;20062;-61
2022/06/21 08:56:08;;;;;;;2.60;2.40;;;;;;;;;;4992084;28;20041;-61
2022/06/21 08:58:33;;;;;;;3.15;2.55;;;;;;;;;;4988533;28;20041;-61
2022/06/21 09:01:01;;;;;;;3.65;3.30;;;;;;;;;;4989504;28;20026;-61
2022/06/21 09:03:26;;;;;;;4.10;2.65;;;;;;;;;;4988396;28;20365;-60
2022/06/21 09:05:57;;;;;;;3.13;2.70;;;;;;;;;;4988282;28;20073;-62
2022/06/21 09:08:22;;;;;;;3.67;2.63;;;;;;;;;;4986641;28;20058;-61
2022/06/21 09:10:48;;;;;;;3.95;3.03;;;;;;;;;;4988883;28;20022;-61
2022/06/21 09:13:22;;;;;;;3.15;2.75;;;;;;;;;;4988399;28;20085;-60
2022/06/21 09:16:06;;;;;;;5.20;2.72;;;;;;;;;;4990945;28;20022;-61
2022/06/21 09:18:31;;;;;;;2.90;2.60;;;;;;;;;;4990346;28;20045;-60
2022/06/21 09:20:56;;;;;;;3.97;3.00;;;;;;;;;;4993272;28;20026;-61
2022/06/21 09:23:40;;;;;;;3.25;2.72;;;;;;;;;;4991118;28;20573;-60
2022/06/21 09:26:05;;;;;;;3.60;2.72;;;;;;;;;;4987322;28;20213;-60
2022/06/21 09:28:39;;;;;;;2.53;2.30;;;;;;;;;;4985226;28;20045;-60
2022/06/21 09:31:08;;;;;;;3.50;2.42;;;;;;;;;;4990572;28;20050;-61
2022/06/21 09:33:46;;;;;;;3.45;2.83;;;;;;;;;;4987492;28;20058;-61
2022/06/21 09:36:21;;;;;;;3.72;3.20;;;;;;;;;;4989848;28;20041;-61
2022/06/21 09:38:59;;;;;;;2.45;2.30;;;;;;;;;;4988861;28;20617;-60
2022/06/21 09:41:39;;;;;;;2.53;2.33;;;;;;;;;;4986841;28;20110;-60
2022/06/21 09:44:14;;;;;;;3.17;2.08;;;;;;;;;;4989187;28;20188;-60
2022/06/21 09:46:50;;;;;;;4.07;2.22;;;;;;;;;;4991215;28;20482;-60
2022/06/21 09:49:18;;;;;;;2.83;2.53;;;;;;;;;;4986993;28;20545;-60
2022/06/21 09:51:55;;;;;;;3.53;2.13;;;;;;;;;;4987952;28;20039;-60
2022/06/21 09:54:20;;;;;;;2.65;2.28;;;;;;;;;;4989594;28;20026;-60
2022/06/21 09:56:49;;;;;;;3.25;2.70;;;;;;;;;;4987262;28;20032;-60
2022/06/21 09:59:23;;;;;;;2.28;2.08;;;;;;;;;;4986169;28;20100;-61
2022/06/21 10:01:49;;;;;;;;;;;;;;;;;;4991156;28;20042;-60
2022/06/21 10:04:21;;;;;;;3.47;2.97;;;;;;;;;;4990043;28;20334;-60
2022/06/21 10:06:59;;;;;;;4.00;2.20;;;;;;;;;;4987403;28;20038;-60
2022/06/21 10:09:43;;;;;;;3.50;2.60;;;;;;;;;;4984539;28;20049;-60
2022/06/21 10:12:27;;;;;;;3.55;2.67;;;;;;;;;;4986304;28;20034;-61
2022/06/21 10:15:12;;;;;;;2.67;2.03;;;;;;;;;;4989535;28;20057;-60
2022/06/21 10:17:47;;;;;;;4.80;2.25;;;;;;;;;;4988655;28;20029;-60
2022/06/21 10:20:21;;;;;;;2.28;2.08;;;;;;;;;;4984632;28;20427;-64
2022/06/21 10:22:52;;;;;;;2.58;2.30;;;;;;;;;;4987668;28;20499;-60
2022/06/21 10:25:36;;;;;;;3.78;2.55;;;;;;;;;;4987521;28;20113;-61
2022/06/21 10:28:13;;;;;;;2.55;2.33;;;;;;;;;;4984688;28;20542;-60
2022/06/21 10:30:46;;;;;;;4.07;2.38;;;;;;;;;;4988725;28;20601;-60
2022/06/21 10:33:27;;;;;;;2.70;2.30;;;;;;;;;;4989148;28;20022;-60
2022/06/21 10:36:04;;;;;;;3.55;2.28;;;;;;;;;;4984643;28;20036;-60
2022/06/21 10:38:49;;;;;;;2.97;2.28;;;;;;;;;;4985739;28;20049;-60
2022/06/21 10:41:34;;;;;;;2.20;2.00;;;;;;;;;;4987960;28;20094;-60
2022/06/21 10:44:00;;;;;;;2.10;2.00;;;;;;;;;;4989624;28;20066;-60
2022/06/21 10:46:33;;;;;;;2.90;2.20;;;;;;;;;;4986699;28;20137;-61
2022/06/21 10:49:14;;;;;;;2.00;1.90;;;;;;;;;;4987246;28;20041;-62
2022/06/21 10:51:53;;;;;;;1.90;1.77;;;;;;;;;;4987981;28;20031;-61
2022/06/21 10:54:18;;;;;;;2.53;2.33;;;;;;;;;;4986719;28;20036;-61
2022/06/21 10:57:14;;;;;;;4.25;2.42;;;;;;;;;;4987892;28;20030;-61
2022/06/21 11:02:43;;;;;;;2.50;2.30;;;;;;;;;;4987704;28;20134;-61
2022/06/21 11:05:17;;;;;;;2.00;1.90;;;;;;;;;;4984714;28;20508;-61
2022/06/21 11:07:47;;;;;;;2.40;2.20;;;;;;;;;;4984839;28;20047;-61
2022/06/21 11:10:17;;;;;;;4.57;2.78;;;;;;;;;;4987957;28;20552;-62
2022/06/21 11:12:53;;;;;;;3.25;2.30;;;;;;;;;;4987325;28;20041;-62
2022/06/21 11:15:38;;;;;;;2.00;1.90;;;;;;;;;;4986836;28;20551;-61
2022/06/21 11:18:05;;;;;;;3.17;2.88;;;;;;;;;;4988826;28;20030;-62
2022/06/21 11:20:50;;;;;;;3.70;2.28;;;;;;;;;;4987092;28;20025;-61
2022/06/21 11:23:26;;;;;;;2.43;2.23;;;;;;;;;;4985040;28;20100;-62
2022/06/21 11:25:52;;;;;;;2.42;2.33;;;;;;;;;;4984248;28;20511;-62
2022/06/21 11:28:21;;;;;;;3.00;2.17;;;;;;;;;;4983205;28;20396;-61
2022/06/21 11:30:52;;;;;;;2.17;2.05;;;;;;;;;;4986746;28;20089;-61
2022/06/21 11:33:23;;;;;;;4.03;2.40;;;;;;;;;;4983424;28;20145;-62
2022/06/21 11:36:15;;;;;;;3.13;2.50;;;;;;;;;;4986111;28;20437;-61
2022/06/21 11:38:56;;;;;;;3.17;2.95;;;;;;;;;;4983422;28;20060;-62
2022/06/21 11:44:30;;;;;;;2.67;2.47;;;;;;;;;;4984425;28;20547;-62
2022/06/21 11:47:22;;;;;;;5.35;2.55;;;;;;;;;;4991531;28;20456;-61
2022/06/21 11:49:56;;;;;;;2.65;2.45;;;;;;;;;;4907136;29;20589;-62
2022/06/21 11:52:39;;;;;;;7.97;3.13;;;;;;;;;;4903406;29;20067;-61
2022/06/21 11:55:18;;;;;;;2.40;2.30;;;;;;;;;;4909429;29;20028;-63
2022/06/21 11:57:43;;;;;;;3.53;2.20;;;;;;;;;;4908133;29;20578;-62
2022/06/21 12:00:15;;;;;;;2.40;2.28;;;;;;;;;;4905646;29;20103;-62
2022/06/21 12:02:55;;;;;;;2.60;2.40;;;;;;;;;;4908456;29;20032;-62
2022/06/21 12:05:36;;;;;;;3.03;2.83;;;;;;;;;;4910161;29;20052;-60
2022/06/21 12:08:19;;;;;;;3.17;2.97;;;;;;;;;;4901991;29;20053;-61
2022/06/21 12:10:49;;;;;;;2.83;2.72;;;;;;;;;;4892383;29;20127;-61
2022/06/21 12:13:18;;;;;;;2.65;2.40;;;;;;;;;;4889533;29;20138;-61
2022/06/21 12:15:44;;;;;;;7.72;2.65;;;;;;;;;;4890739;29;20040;-61
2022/06/21 12:18:12;;;;;;;2.75;2.55;;;;;;;;;;4890819;29;20572;-61
2022/06/21 12:20:40;;;;;;;2.35;2.15;;;;;;;;;;4887480;29;20095;-61
2022/06/21 12:23:14;;;;;;;2.78;2.58;;;;;;;;;;4874497;29;20036;-61
2022/06/21 12:25:39;;;;;;;2.72;2.53;;;;;;;;;;4897838;28;20029;-62
2022/06/21 12:28:08;;;;;;;3.13;2.83;;;;;;;;;;4949101;28;20042;-61
2022/06/21 12:30:33;;;;;;;2.80;2.10;;;;;;;;;;4950112;28;20041;-61
2022/06/21 12:33:03;;;;;;;4.20;2.65;;;;;;;;;;4965587;28;20046;-61
2022/06/21 12:35:43;;;;;;;2.22;2.03;;;;;;;;;;4950641;28;20031;-61
2022/06/21 12:38:09;;;;;;;3.03;2.20;;;;;;;;;;4947899;28;20035;-61
2022/06/21 12:40:34;;;;;;;2.70;2.60;;;;;;;;;;4949323;28;20041;-61
2022/06/21 12:43:19;;;;;;;3.55;2.58;;;;;;;;;;4953687;28;20023;-61
2022/06/21 12:45:59;;;;;;;2.92;2.53;;;;;;;;;;4951327;28;20031;-61
2022/06/21 12:48:33;;;;;;;6.65;2.78;;;;;;;;;;4950702;28;20061;-61
2022/06/21 12:51:17;;;;;;;2.63;2.50;;;;;;;;;;4948269;28;20023;-62
2022/06/21 12:53:49;;;;;;;2.63;2.53;;;;;;;;;;4951081;28;20046;-61
2022/06/21 12:56:20;;;;;;;3.33;2.40;;;;;;;;;;4951244;28;20058;-61
2022/06/21 12:58:54;;;;;;;2.70;2.50;;;;;;;;;;4950576;28;20126;-61
2022/06/21 13:01:29;;;;;;;2.30;2.20;;;;;;;;;;4948431;28;20027;-61
2022/06/21 13:04:03;;;;;;;3.17;2.70;;;;;;;;;;4965666;28;20378;-61
2022/06/21 13:06:28;;;;;;;2.70;2.50;;;;;;;;;;4947302;28;20027;-61
2022/06/21 13:08:59;;;;;;;3.22;3.00;;;;;;;;;;4981361;28;20078;-59
2022/06/21 13:11:30;;;;;;;2.65;2.55;;;;;;;;;;4989960;28;20050;-60
2022/06/21 13:14:01;;;;;;;2.67;2.58;;;;;;;;;;4989420;28;20023;-62
2022/06/21 13:16:34;;;;;;;3.00;2.80;;;;;;;;;;4986199;28;20038;-59
2022/06/21 13:19:38;;;;;;;3.67;3.03;;;;;;;;;;4986702;28;20353;-59
2022/06/21 13:22:20;;;;;;;11.35;6.88;;;;;;;;;;4892955;29;20028;-60
2022/06/21 13:24:46;;;;;;;5.15;4.65;;;;;;;;;;4890548;29;20043;-60
2022/06/21 13:27:21;;;;;;;2.58;2.38;;;;;;;;;;4892200;29;20136;-59
2022/06/21 13:29:57;;;;;;;3.10;2.90;;;;;;;;;;4890877;29;20139;-60
2022/06/21 13:32:27;;;;;;;3.08;2.88;;;;;;;;;;4891388;29;20036;-59
2022/06/21 13:34:56;;;;;;;3.92;2.95;;;;;;;;;;4888963;29;20032;-59
2022/06/21 13:37:22;;;;;;;3.30;3.10;;;;;;;;;;4888057;29;20395;-59
2022/06/21 13:40:06;;;;;;;3.72;3.30;;;;;;;;;;4893138;29;20049;-59
2022/06/21 13:42:37;;;;;;;3.90;3.00;;;;;;;;;;4895759;29;20043;-58
2022/06/21 13:45:22;;;;;;;3.35;3.13;;;;;;;;;;4893288;29;20176;-60
2022/06/21 13:47:51;;;;;;;4.00;2.60;;;;;;;;;;4888841;29;20064;-60
2022/06/21 13:50:22;;;;;;;3.47;3.28;;;;;;;;;;4891194;29;20055;-60
2022/06/21 13:53:05;;;;;;;4.53;3.00;;;;;;;;;;4934943;28;20157;-59
2022/06/21 13:55:53;;;;;;;4.50;3.20;;;;;;;;;;4989001;28;20030;-59
2022/06/21 13:58:25;;;;;;;3.33;2.97;;;;;;;;;;4988918;28;20521;-60
2022/06/21 14:01:08;;;;;;;4.97;3.10;;;;;;;;;;4986716;28;20468;-60
2022/06/21 14:03:39;;;;;;;3.50;3.30;;;;;;;;;;4985284;28;20361;-60
2022/06/21 14:06:13;;;;;;;2.90;2.70;;;;;;;;;;4987249;28;20034;-60
2022/06/21 14:08:44;;;;;;;3.90;3.60;;;;;;;;;;4980719;28;20145;-59
2022/06/21 14:11:17;;;;;;;2.80;2.58;;;;;;;;;;4971268;28;20122;-59
2022/06/21 14:13:54;;;;;;;3.25;3.05;;;;;;;;;;4968450;28;20478;-58
2022/06/21 14:16:25;;;;;;;3.00;2.80;;;;;;;;;;4967508;28;20022;-58
2022/06/21 14:18:51;;;;;;;3.22;3.08;;;;;;;;;;4973861;28;20034;-58
2022/06/21 14:21:45;;;;;;;2.72;2.53;;;;;;;;;;4968349;28;20633;-61
2022/06/21 14:24:14;;;;;;;3.28;3.08;;;;;;;;;;4962018;28;20158;-59
2022/06/21 14:26:49;;;;;;;3.78;2.80;;;;;;;;;;4966591;28;20109;-61
2022/06/21 14:29:24;;;;;;;3.63;3.13;;;;;;;;;;4969166;28;20125;-60
2022/06/21 14:31:49;;;;;;;;;;;;;;;;;;4967018;28;20185;-60
2022/06/21 14:34:36;;;;;;;2.70;2.50;;;;;;;;;;4968622;28;20298;-60
2022/06/21 14:37:07;;;;;;;5.68;3.42;;;;;;;;;;4970562;28;20621;-60
2022/06/21 14:39:45;;;;;;;2.97;2.88;;;;;;;;;;4969004;28;20030;-60
2022/06/21 14:42:19;;;;;;;3.63;3.33;;;;;;;;;;4966475;28;20046;-60
2022/06/21 14:44:51;;;;;;;3.38;2.88;;;;;;;;;;4967808;28;20034;-60
2022/06/21 14:47:21;;;;;;;3.75;3.13;;;;;;;;;;4968815;28;20026;-60
2022/06/21 14:49:58;;;;;;;2.58;2.47;;;;;;;;;;4971591;28;20066;-60
2022/06/21 14:52:35;;;;;;;4.68;3.53;;;;;;;;;;4965453;28;20547;-60
2022/06/21 14:55:20;;;;;;;3.30;3.10;;;;;;;;;;4967866;28;20974;-60
2022/06/21 14:58:04;;;;;;;2.70;2.60;;;;;;;;;;4963995;28;20038;-61
2022/06/21 15:00:42;;;;;;;3.95;3.25;;;;;;;;;;4961292;28;20035;-60
2022/06/21 15:03:27;;;;;;;3.33;3.13;;;;;;;;;;4966942;28;20034;-61
2022/06/21 15:06:13;;;;;;;2.80;2.60;;;;;;;;;;4970625;28;20034;-63
2022/06/21 15:08:46;;;;;;;4.45;2.92;;;;;;;;;;4981674;28;20050;-60
2022/06/21 15:14:17;;;;;;;3.13;2.80;;;;;;;;;;4988616;28;20107;-60
2022/06/21 15:17:05;;;;;;;3.33;3.08;;;;;;;;;;4985501;28;20503;-60
2022/06/21 15:19:53;;;;;;;3.47;3.38;;;;;;;;;;4986371;28;20472;-60
2022/06/21 15:22:39;;;;;;;3.42;3.20;;;;;;;;;;4987923;28;20145;-60
2022/06/21 15:25:16;;;;;;;3.70;3.25;;;;;;;;;;4988689;28;20468;-61
2022/06/21 15:27:44;;;;;;;3.78;3.28;;;;;;;;;;4985301;28;20031;-63